La Salle, Illinois
Current Conditions -  °F | °C
As of 4:55 PM on Thursday 20 Nov 2014 (Local Time) from KVYS Reporting Station
Clear Clear  
Wind Chill: 13°   Ceiling: Unl
Heat Index: 25°   Visibility: 10mi
Dew Point:   Wind: 14mph
Humidity: 44%   Direction: 290°WNW
Pressure: 30.19"   Gusts: NA
Location:  41.33°N, 89.09°W
Report Text: KVYS 202255Z AUTO 29012KT 10SM CLR M04/M15 A3019 RMK AO2 T10401147
Loading
Personal Weather Stations






























Interactive Weather Map New forecast layout! Learn more

10-Day Weather Forecast

Advertisements
Track Severe Weather on mobile